This is the latest recevied weather packets stored in our database for station/object LX2ZZ-13. If no packets are shown the sender has not sent any weather packets the latest 10 day(s).
| Time | Temp. | Humidity | Pressure | Rain* | Wind** | Luminosity | Snow |
|---|---|---|---|---|---|---|---|
| 1777241760 | 7.22° C | 77% | 1022.2 hPa | 0 mm | - | - | - |
| 1777239347 | 10° C | 62% | 1022.1 hPa | 0 mm | - | - | - |
| 1777237538 | 10.56° C | 62% | 1022 hPa | 0 mm | - | - | - |
| 1777233919 | 10.56° C | 68% | 1021.7 hPa | 0 mm | - | - | - |
| 1777232170 | 10.56° C | 72% | 1021.2 hPa | 0 mm | - | - | - |
| 1777229757 | 13.33° C | 58% | 1021.1 hPa | 0 mm | - | - | - |
| 1777225535 | 17.22° C | 46% | 1020.7 hPa | 0 mm | - | - | - |
| 1777224932 | 17.78° C | 48% | 1020.6 hPa | 0 mm | - | - | - |
| 1777223123 | 19.44° C | 38% | 1020.6 hPa | 0 mm | - | - | - |
| 1777222520 | 19.44° C | 35% | 1020.6 hPa | 0 mm | - | - | - |
| 1777220771 | 20.56° C | 33% | 1020.8 hPa | 0 mm | - | - | - |
| 1777216569 | 22.22° C | 28% | 1021.1 hPa | 0 mm | - | - | - |
| 1777210517 | 21.67° C | 32% | 1021.8 hPa | 0 mm | - | - | - |
| 1777208788 | 21.11° C | 33% | 1022 hPa | 0 mm | - | - | - |
| 1777208166 | 21.67° C | 31% | 1022.2 hPa | 0 mm | - | - | - |
| 1777202737 | 19.44° C | 35% | 1022.6 hPa | 0 mm | - | - | - |
| 1777201531 | 18.33° C | 40% | 1022.7 hPa | 0 mm | - | - | - |
| 1777193748 | 15° C | 48% | 1023.4 hPa | 0 mm | - | - | - |
| 1777188320 | 10.56° C | 65% | 1023.3 hPa | 0 mm | - | - | - |
| 1777187175 | 8.33° C | 69% | 1023.3 hPa | 0 mm | - | - | - |
| 1777183556 | 2.22° C | 98% | 1023 hPa | 0 mm | - | - | - |
| 1777182953 | 1.67° C | 99% | 1023.1 hPa | 0 mm | - | - | - |
| 1777170347 | -0.56° C | 96% | 1021.6 hPa | 0 mm | - | - | - |
| 1777167371 | 0° C | 94% | 1021.4 hPa | 0 mm | - | - | - |
| 1777166748 | 0° C | 94% | 1021.3 hPa | 0 mm | - | - | - |
* Rain latest hour (hover to see other rain measurements)
** Current wind speed in m/s (hover to see current wind gust speed)